Hayward — AEEA — position and weather

sailwx.info

Track history (hours):
 
Tides and Currents Weather Stations Pressure Air Temp Water Temp Dewpoint Dewpoint Depression Visibility Wind Speed Wind Dir Waves Ship Positions

Hayward

Last reported at 2017-Sep-21 19:07 UTC. Time now 2017-Nov-20 04:02 UTC.
Position N 40°41' W 074°04'.
Warning: this ship's position is 59 days out of date.

Length 37 m; draft 2.7 m.

MMSI: 366999412.

Date/timePositionNaut miles runAvg speedWind from/ knotsBaromVisibWave heightAir tempDewpointWater temp
2017-Sep-21 19:07N 40°41' W 074°04'0 0.7
2017-Sep-21 19:01N 40°41' W 074°04'0 0.0
2017-Sep-21 18:30N 40°41' W 074°04'0 0.8
2017-Sep-21 18:00N 40°41' W 074°04'3 6.1
2017-Sep-21 17:31N 40°43' W 074°01'510.0
2017-Sep-21 17:01N 40°38' W 074°03'5 8.8
2017-Sep-21 16:29N 40°34' W 073°60'5 9.4
2017-Sep-21 16:01N 40°34' W 073°54'4 8.4
2017-Sep-21 15:31N 40°38' W 073°52'0 0.5
2017-Sep-21 15:01N 40°38' W 073°52'4 8.2
2017-Sep-21 14:30N 40°34' W 073°54'5 9.7
2017-Sep-21 14:00N 40°34' W 074°01'510.8
2017-Sep-21 13:31N 40°39' W 074°03'4 7.9
2017-Sep-21 13:00N 40°43' W 074°01'0 0.4
2017-Sep-21 12:31N 40°43' W 074°01'3 5.6
2017-Sep-21 12:00N 40°41' W 074°04'0 0.0
2017-Sep-21 11:30N 40°41' W 074°04'0 0.0
2017-Sep-21 11:01N 40°41' W 074°04'0 0.0
2017-Sep-21 10:31N 40°41' W 074°04'0 0.0
2017-Sep-20 11:43N 40°41' W 074°04'0 0.0
2017-Sep-20 11:30N 40°41' W 074°04'0 0.0
2017-Sep-19 18:52N 40°41' W 074°04'0 1.4
2017-Sep-19 18:30N 40°41' W 074°04'0 0.0
2017-Sep-19 18:00N 40°41' W 074°04'3 5.8
2017-Sep-19 17:31N 40°42' W 074°00'3 5.6
2017-Sep-19 17:00N 40°40' W 074°03'1 3.0
2017-Sep-19 16:30N 40°41' W 074°04'0 0.0
2017-Sep-19 16:00N 40°41' W 074°04'0 0.0
2017-Sep-19 15:30N 40°41' W 074°04'0 0.0
2017-Sep-19 15:00N 40°41' W 074°04'0 0.0
2017-Sep-19 14:30N 40°41' W 074°04'0 0.0
2017-Sep-19 14:00N 40°41' W 074°04'0 0.0
2017-Sep-19 13:30N 40°41' W 074°04'0 0.0
2017-Sep-19 13:00N 40°41' W 074°04'0 0.0
2017-Sep-19 12:30N 40°41' W 074°04'0 0.0
2017-Sep-19 12:00N 40°41' W 074°04'0 0.0
2017-Sep-19 11:30N 40°41' W 074°04'0 0.0
2017-Sep-18 18:57N 40°41' W 074°04'0 0.1
2017-Sep-18 18:31N 40°41' W 074°04'0 0.8
2017-Sep-18 18:00N 40°41' W 074°04'0 0.0
2017-Sep-18 17:30N 40°41' W 074°04'4 7.4
2017-Sep-18 17:00N 40°44' W 074°02'0 0.0
2017-Sep-18 16:30N 40°44' W 074°02'0 0.0
2017-Sep-18 16:00N 40°44' W 074°02'0 0.6
2017-Sep-18 15:30N 40°44' W 074°01'4 7.9
2017-Sep-18 15:00N 40°40' W 074°03'5 9.7
2017-Sep-18 14:30N 40°38' W 074°09'3 5.9
2017-Sep-18 14:00N 40°37' W 074°12'3 6.0
2017-Sep-18 13:30N 40°39' W 074°09'4 7.6
2017-Sep-18 13:00N 40°40' W 074°04'1 2.7
2017-Sep-18 12:30N 40°41' W 074°04'1 0.0
2017-Sep-17 17:20N 40°41' W 074°04'3 9.4
2017-Sep-17 17:00N 40°43' W 074°02'1 2.0
2017-Sep-17 16:30N 40°44' W 074°02'0 0.0
2017-Sep-17 16:00N 40°44' W 074°02'0 0.0
2017-Sep-17 15:30N 40°44' W 074°02'2 4.8
2017-Sep-17 15:00N 40°42' W 074°01'4 7.1
2017-Sep-17 14:30N 40°39' W 074°02'4 7.8
2017-Sep-17 14:00N 40°35' W 074°01'5 9.9
2017-Sep-17 13:30N 40°39' W 074°05'2 4.9
2017-Sep-17 13:00N 40°39' W 074°08'4 7.5
2017-Sep-17 12:30N 40°40' W 074°03'1 0.1
2017-Sep-16 18:46N 40°41' W 074°04'0 1.9
2017-Sep-16 18:31N 40°41' W 074°04'0 0.0
2017-Sep-16 18:00N 40°41' W 074°04'0 0.0
2017-Sep-16 17:31N 40°41' W 074°04'2 3.1
2017-Sep-16 17:01N 40°42' W 074°02'3 4.9
2017-Sep-16 16:30N 40°44' W 074°02'0 0.0
2017-Sep-16 16:00N 40°44' W 074°02'1 2.5
2017-Sep-16 15:30N 40°43' W 074°01'5 9.1
2017-Sep-16 15:00N 40°38' W 074°02'510.6
2017-Sep-16 14:30N 40°33' W 074°01'1 1.7
2017-Sep-16 14:00N 40°32' W 074°01'0 1.0
2017-Sep-16 13:30N 40°33' W 074°01'1 2.4
2017-Sep-16 13:00N 40°34' W 074°02'1 1.4
2017-Sep-16 12:30N 40°34' W 074°02'2 3.5
2017-Sep-16 12:00N 40°36' W 074°03'5 9.8
2017-Sep-16 11:30N 40°41' W 074°04'0 0.0
2017-Sep-15 18:46N 40°41' W 074°04'0 1.9
2017-Sep-15 18:30N 40°41' W 074°04'0 0.0
2017-Sep-15 18:00N 40°41' W 074°04'1 1.9
2017-Sep-15 17:30N 40°40' W 074°05'2 4.4
2017-Sep-15 17:00N 40°40' W 074°02'3 6.8
2017-Sep-15 16:30N 40°43' W 074°01'1 1.5
2017-Sep-15 16:00N 40°44' W 074°02'0 0.0
2017-Sep-15 15:30N 40°44' W 074°02'2 3.5
2017-Sep-15 15:00N 40°46' W 074°01'4 7.2
2017-Sep-15 14:30N 40°42' W 074°02'5 9.2
2017-Sep-15 14:00N 40°38' W 074°03'2 3.5
2017-Sep-15 13:30N 40°39' W 074°04'3 6.4
2017-Sep-15 13:00N 40°39' W 074°08'4 8.1
2017-Sep-15 12:30N 40°40' W 074°04'1 1.7
2017-Sep-15 12:00N 40°41' W 074°04'0 0.0
2017-Sep-15 11:30N 40°41' W 074°04'0 0.0
2017-Sep-15 11:00N 40°41' W 074°04'0 0.0
2017-Sep-14 18:50N 40°41' W 074°04'0 1.5
2017-Sep-14 18:30N 40°41' W 074°04'0 0.0
2017-Sep-14 18:00N 40°41' W 074°04'0 0.0
2017-Sep-14 17:30N 40°41' W 074°04'2 4.7
2017-Sep-14 17:00N 40°39' W 074°02'0 0.4
2017-Sep-14 16:30N 40°39' W 074°02'0 0.0
2017-Sep-14 16:00N 40°39' W 074°02'0 0.6
2017-Sep-14 15:30N 40°39' W 074°02'4 8.5
2017-Sep-14 15:00N 40°35' W 074°01'3 5.4
2017-Sep-14 14:30N 40°32' W 074°01'0 0.8
2017-Sep-14 14:00N 40°32' W 074°01'0 0.7
2017-Sep-14 13:30N 40°33' W 074°01'1 1.3
2017-Sep-14 13:00N 40°33' W 074°02'5 9.0
2017-Sep-14 12:30N 40°38' W 074°03'4 8.2
2017-Sep-14 12:00N 40°38' W 074°09'3 5.4
2017-Sep-14 11:30N 40°39' W 074°05'2 4.3
2017-Sep-14 11:00N 40°41' W 074°04'0 0.0
2017-Sep-13 18:53N 40°41' W 074°04'0 1.3
2017-Sep-13 18:31N 40°41' W 074°04'0 0.0
2017-Sep-13 18:01N 40°41' W 074°04'0 0.0
2017-Sep-13 17:31N 40°41' W 074°04'3 5.2
2017-Sep-13 17:01N 40°39' W 074°02'0 0.0
2017-Sep-13 16:31N 40°39' W 074°02'0 0.0
2017-Sep-13 16:01N 40°39' W 074°02'5 8.8
2017-Sep-13 15:30N 40°34' W 074°02'0 0.6
2017-Sep-13 14:59N 40°34' W 074°02'1 2.1
2017-Sep-13 14:30N 40°35' W 074°03'0 0.2
2017-Sep-13 14:01N 40°35' W 074°03'0 0.2
2017-Sep-13 13:30N 40°35' W 074°03'1 1.1
2017-Sep-13 13:01N 40°36' W 074°03'4 8.9
2017-Sep-13 12:31N 40°39' W 074°07'0 0.5
2017-Sep-13 12:01N 40°39' W 074°07'3 6.2
2017-Sep-13 11:31N 40°41' W 074°04'0 0.0
2017-Sep-12 18:48N 40°41' W 074°04'0 1.6
2017-Sep-12 18:30N 40°41' W 074°04'0 0.0
2017-Sep-12 18:00N 40°41' W 074°04'0 0.3
2017-Sep-12 17:30N 40°41' W 074°04'2 4.3
2017-Sep-12 17:00N 40°39' W 074°02'0 0.5
2017-Sep-12 16:30N 40°39' W 074°02'0 0.0
2017-Sep-12 16:00N 40°39' W 074°02'0 0.0
2017-Sep-12 15:30N 40°39' W 074°02'2 3.9
2017-Sep-12 15:00N 40°37' W 074°03'2 4.2
2017-Sep-12 14:30N 40°39' W 074°03'4 8.7
2017-Sep-12 14:00N 40°42' W 073°60'2 3.0
2017-Sep-12 13:30N 40°43' W 073°58'3 5.7
2017-Sep-12 13:00N 40°42' W 074°01'  
Track history (hours):
 
Tides and Currents Weather Stations Pressure Air Temp Water Temp Dewpoint Dewpoint Depression Visibility Wind Speed Wind Dir Waves Ship Positions

Hayward

Last reported at 2017-Sep-21 19:07 UTC. Time now 2017-Nov-20 04:02 UTC.
Position N 40°41' W 074°04'.
Warning: this ship's position is 59 days out of date.

Length 37 m; draft 2.7 m.

MMSI: 366999412.

Date/timePositionNaut miles runAvg speedWind from/ knotsBaromVisibWave heightAir tempDewpointWater temp
2017-Sep-21 19:07N 40°41' W 074°04'0 0.7
2017-Sep-21 19:01N 40°41' W 074°04'0 0.0
2017-Sep-21 18:30N 40°41' W 074°04'0 0.8
2017-Sep-21 18:00N 40°41' W 074°04'3 6.1
2017-Sep-21 17:31N 40°43' W 074°01'510.0
2017-Sep-21 17:01N 40°38' W 074°03'5 8.8
2017-Sep-21 16:29N 40°34' W 073°60'5 9.4
2017-Sep-21 16:01N 40°34' W 073°54'4 8.4
2017-Sep-21 15:31N 40°38' W 073°52'0 0.5
2017-Sep-21 15:01N 40°38' W 073°52'4 8.2
2017-Sep-21 14:30N 40°34' W 073°54'5 9.7
2017-Sep-21 14:00N 40°34' W 074°01'510.8
2017-Sep-21 13:31N 40°39' W 074°03'4 7.9
2017-Sep-21 13:00N 40°43' W 074°01'0 0.4
2017-Sep-21 12:31N 40°43' W 074°01'3 5.6
2017-Sep-21 12:00N 40°41' W 074°04'0 0.0
2017-Sep-21 11:30N 40°41' W 074°04'0 0.0
2017-Sep-21 11:01N 40°41' W 074°04'0 0.0
2017-Sep-21 10:31N 40°41' W 074°04'0 0.0
2017-Sep-20 11:43N 40°41' W 074°04'0 0.0
2017-Sep-20 11:30N 40°41' W 074°04'0 0.0
2017-Sep-19 18:52N 40°41' W 074°04'0 1.4
2017-Sep-19 18:30N 40°41' W 074°04'0 0.0
2017-Sep-19 18:00N 40°41' W 074°04'3 5.8
2017-Sep-19 17:31N 40°42' W 074°00'3 5.6
2017-Sep-19 17:00N 40°40' W 074°03'1 3.0
2017-Sep-19 16:30N 40°41' W 074°04'0 0.0
2017-Sep-19 16:00N 40°41' W 074°04'0 0.0
2017-Sep-19 15:30N 40°41' W 074°04'0 0.0
2017-Sep-19 15:00N 40°41' W 074°04'0 0.0
2017-Sep-19 14:30N 40°41' W 074°04'0 0.0
2017-Sep-19 14:00N 40°41' W 074°04'0 0.0
2017-Sep-19 13:30N 40°41' W 074°04'0 0.0
2017-Sep-19 13:00N 40°41' W 074°04'0 0.0
2017-Sep-19 12:30N 40°41' W 074°04'0 0.0
2017-Sep-19 12:00N 40°41' W 074°04'0 0.0
2017-Sep-19 11:30N 40°41' W 074°04'0 0.0
2017-Sep-18 18:57N 40°41' W 074°04'0 0.1
2017-Sep-18 18:31N 40°41' W 074°04'0 0.8
2017-Sep-18 18:00N 40°41' W 074°04'0 0.0
2017-Sep-18 17:30N 40°41' W 074°04'4 7.4
2017-Sep-18 17:00N 40°44' W 074°02'0 0.0
2017-Sep-18 16:30N 40°44' W 074°02'0 0.0
2017-Sep-18 16:00N 40°44' W 074°02'0 0.6
2017-Sep-18 15:30N 40°44' W 074°01'4 7.9
2017-Sep-18 15:00N 40°40' W 074°03'5 9.7
2017-Sep-18 14:30N 40°38' W 074°09'3 5.9
2017-Sep-18 14:00N 40°37' W 074°12'3 6.0
2017-Sep-18 13:30N 40°39' W 074°09'4 7.6
2017-Sep-18 13:00N 40°40' W 074°04'1 2.7
2017-Sep-18 12:30N 40°41' W 074°04'1 0.0
2017-Sep-17 17:20N 40°41' W 074°04'3 9.4
2017-Sep-17 17:00N 40°43' W 074°02'1 2.0
2017-Sep-17 16:30N 40°44' W 074°02'0 0.0
2017-Sep-17 16:00N 40°44' W 074°02'0 0.0
2017-Sep-17 15:30N 40°44' W 074°02'2 4.8
2017-Sep-17 15:00N 40°42' W 074°01'4 7.1
2017-Sep-17 14:30N 40°39' W 074°02'4 7.8
2017-Sep-17 14:00N 40°35' W 074°01'5 9.9
2017-Sep-17 13:30N 40°39' W 074°05'2 4.9
2017-Sep-17 13:00N 40°39' W 074°08'4 7.5
2017-Sep-17 12:30N 40°40' W 074°03'1 0.1
2017-Sep-16 18:46N 40°41' W 074°04'0 1.9
2017-Sep-16 18:31N 40°41' W 074°04'0 0.0
2017-Sep-16 18:00N 40°41' W 074°04'0 0.0
2017-Sep-16 17:31N 40°41' W 074°04'2 3.1
2017-Sep-16 17:01N 40°42' W 074°02'3 4.9
2017-Sep-16 16:30N 40°44' W 074°02'0 0.0
2017-Sep-16 16:00N 40°44' W 074°02'1 2.5
2017-Sep-16 15:30N 40°43' W 074°01'5 9.1
2017-Sep-16 15:00N 40°38' W 074°02'510.6
2017-Sep-16 14:30N 40°33' W 074°01'1 1.7
2017-Sep-16 14:00N 40°32' W 074°01'0 1.0
2017-Sep-16 13:30N 40°33' W 074°01'1 2.4
2017-Sep-16 13:00N 40°34' W 074°02'1 1.4
2017-Sep-16 12:30N 40°34' W 074°02'2 3.5
2017-Sep-16 12:00N 40°36' W 074°03'5 9.8
2017-Sep-16 11:30N 40°41' W 074°04'0 0.0
2017-Sep-15 18:46N 40°41' W 074°04'0 1.9
2017-Sep-15 18:30N 40°41' W 074°04'0 0.0
2017-Sep-15 18:00N 40°41' W 074°04'1 1.9
2017-Sep-15 17:30N 40°40' W 074°05'2 4.4
2017-Sep-15 17:00N 40°40' W 074°02'3 6.8
2017-Sep-15 16:30N 40°43' W 074°01'1 1.5
2017-Sep-15 16:00N 40°44' W 074°02'0 0.0
2017-Sep-15 15:30N 40°44' W 074°02'2 3.5
2017-Sep-15 15:00N 40°46' W 074°01'4 7.2
2017-Sep-15 14:30N 40°42' W 074°02'5 9.2
2017-Sep-15 14:00N 40°38' W 074°03'2 3.5
2017-Sep-15 13:30N 40°39' W 074°04'3 6.4
2017-Sep-15 13:00N 40°39' W 074°08'4 8.1
2017-Sep-15 12:30N 40°40' W 074°04'1 1.7
2017-Sep-15 12:00N 40°41' W 074°04'0 0.0
2017-Sep-15 11:30N 40°41' W 074°04'0 0.0
2017-Sep-15 11:00N 40°41' W 074°04'0 0.0
2017-Sep-14 18:50N 40°41' W 074°04'0 1.5
2017-Sep-14 18:30N 40°41' W 074°04'0 0.0
2017-Sep-14 18:00N 40°41' W 074°04'0 0.0
2017-Sep-14 17:30N 40°41' W 074°04'2 4.7
2017-Sep-14 17:00N 40°39' W 074°02'0 0.4
2017-Sep-14 16:30N 40°39' W 074°02'0 0.0
2017-Sep-14 16:00N 40°39' W 074°02'0 0.6
2017-Sep-14 15:30N 40°39' W 074°02'4 8.5
2017-Sep-14 15:00N 40°35' W 074°01'3 5.4
2017-Sep-14 14:30N 40°32' W 074°01'0 0.8
2017-Sep-14 14:00N 40°32' W 074°01'0 0.7
2017-Sep-14 13:30N 40°33' W 074°01'1 1.3
2017-Sep-14 13:00N 40°33' W 074°02'5 9.0
2017-Sep-14 12:30N 40°38' W 074°03'4 8.2
2017-Sep-14 12:00N 40°38' W 074°09'3 5.4
2017-Sep-14 11:30N 40°39' W 074°05'2 4.3
2017-Sep-14 11:00N 40°41' W 074°04'0 0.0
2017-Sep-13 18:53N 40°41' W 074°04'0 1.3
2017-Sep-13 18:31N 40°41' W 074°04'0 0.0
2017-Sep-13 18:01N 40°41' W 074°04'0 0.0
2017-Sep-13 17:31N 40°41' W 074°04'3 5.2
2017-Sep-13 17:01N 40°39' W 074°02'0 0.0
2017-Sep-13 16:31N 40°39' W 074°02'0 0.0
2017-Sep-13 16:01N 40°39' W 074°02'5 8.8
2017-Sep-13 15:30N 40°34' W 074°02'0 0.6
2017-Sep-13 14:59N 40°34' W 074°02'1 2.1
2017-Sep-13 14:30N 40°35' W 074°03'0 0.2
2017-Sep-13 14:01N 40°35' W 074°03'0 0.2
2017-Sep-13 13:30N 40°35' W 074°03'1 1.1
2017-Sep-13 13:01N 40°36' W 074°03'4 8.9
2017-Sep-13 12:31N 40°39' W 074°07'0 0.5
2017-Sep-13 12:01N 40°39' W 074°07'3 6.2
2017-Sep-13 11:31N 40°41' W 074°04'0 0.0
2017-Sep-12 18:48N 40°41' W 074°04'0 1.6
2017-Sep-12 18:30N 40°41' W 074°04'0 0.0
2017-Sep-12 18:00N 40°41' W 074°04'0 0.3
2017-Sep-12 17:30N 40°41' W 074°04'2 4.3
2017-Sep-12 17:00N 40°39' W 074°02'0 0.5
2017-Sep-12 16:30N 40°39' W 074°02'0 0.0
2017-Sep-12 16:00N 40°39' W 074°02'0 0.0
2017-Sep-12 15:30N 40°39' W 074°02'2 3.9
2017-Sep-12 15:00N 40°37' W 074°03'2 4.2
2017-Sep-12 14:30N 40°39' W 074°03'4 8.7
2017-Sep-12 14:00N 40°42' W 073°60'2 3.0
2017-Sep-12 13:30N 40°43' W 073°58'3 5.7
2017-Sep-12 13:00N 40°42' W 074°01'  

Dump ship's entire track history